Terminal Aerodrome Forecast
Issued by NWS St Louis, MO

Home | Current Version | Previous Version | Text Only | Print | Product List | Glossary On
Versions: 1 2 3 4 5 6 7 8 9 10 11 12 13 14 15
000
FTUS43 KLSX 302040 AAA
TAFCOU
TAF AMD
KCOU 302040Z 3021/3118 16006KT P6SM VCTS SCT050CB BKN120
      TEMPO 3022/3024 3SM TSRA BKN030CB
     FM310000 16006KT P6SM VCTS SCT060CB BKN120
     FM310600 VRB04KT P6SM BKN100
     FM311500 14008KT P6SM SCT040 BKN100=

USA.gov is the U.S. government's official web portal to all federal, state and local government web resources and services.